Aviation Digital Data Service (ADDS)

Output produced by METARs form (1554 UTC 23 April 2017)
found at http://www.aviationweather.gov/adds/metars/
 
VDSR 231530Z VRB02KT 9000 FEW020 31/24 Q1009
TAF VDSR 231100Z 2312/2406 21004KT 9999 FEW017